Главная страница
METAR-TAF:

METAR-TAF

Аэропорты :

Рига, Латвия

широта: 56-55N, долгота: 023-58E, высота над уровнем моря: 10 м

Текущие метеонаблюдения

Эта сводка был подготовлена 15 минут назад, в 08:50 UTC
Ветер 4 Узел от южный
Температура 3°C
Влажность 100%
Давление 1022 hPa
Видимость 10 км и более
Нет облачности ниже 1500 м, и нет кучево-дождевой облачности

METAR: EVRA 200850Z 17004KT CAVOK 03/03 Q1022 R18/090095 NOSIG

Время: 12:05 (09:05 UTC)

Прогноз

Эта сводка был подготовлена 1 час и 2 минут назад, в 08:03 UTC
Прогноз действительный с 20-го 09 UTC до 21-го 09 UTC
Ветер 5 Узел от южный
Видимость 10 км и более
Отдельные облака на высоте 3000 фута
временами
С 20-го 16 UTC до 21-го 06 UTC
Видимость: 4000 м
дымка
Вероятность 40% :
временами
С 20-го 16 UTC до 21-го 06 UTC
Видимость: 0600 м
туман, переохлажденный туман

TAF: EVRA 200803Z 2009/2109 18005KT 9999 SCT030 TEMPO 2016/2106 4000 BR PROB40 TEMPO 2016/2106 0600 FG FZFG

Метеонаблюдения и прогнозы для более 4000 аэропортов (сводки METAR и TAF).

Имеющиеся станции представлены на карте желтыми и красными точками.

Чтобы увидеть название станции, наведите на нее мышь.

Затем щелкните, чтобы увидеть метеонаблюдения и метеопрогнозы.

Управление картой: чтобы увеличить масштаб, щелкните зеленые кнопки с черным крестиком; чтобы уменьшить масштаб, щелкните зеленую кнопку с тире; для просмотра соседних карт щелкайте зеленые стрелки.


METAR-TAF: